Terminal Aerodrome Forecast
Issued by NWS Pocatello, ID

Home | Current Version | Previous Version | Text Only | Print | Product List | Glossary On
Versions: 1 2 3 4 5 6 7 8 9 10 11 12
000
FTUS45 KPIH 292300
TAFBYI
TAF
KBYI 292323Z 3000/3024 VRB05KT P6SM VCTS FEW070CB SCT110
     FM300200 17008KT P6SM VCSH FEW080 BKN110
     FM301400 23015G25KT P6SM BKN140=

USA.gov is the U.S. government's official web portal to all federal, state and local government web resources and services.